Solms, Texas
Current Conditions -  °F | °C
As of 9:51 AM on Thursday 23 Oct 2014 (Local Time) from KBAZ Reporting Station
Light Rain Light Rain  
Wind Chill: 73°   Ceiling: 7500
Heat Index: 73°   Visibility: 10mi
Dew Point: 68°   Wind: 3mph
Humidity: 84%   Direction: 10°N
Pressure: 30.14"   Gusts: NA
Location:  29.6944°N, 98.0725°W
Report Text: KBAZ 231451Z 01003KT 10SM -RA BKN075 BKN090 BKN110 23/20 A3014 RMK AO2 RAB47 SLP197 P0000 60000 T02280200 53016 $
Loading
Personal Weather Stations






























Interactive Weather Map
Tropical Storm Tracking
New forecast layout! Learn more

10-Day Weather Forecast

Advertisements
Track Severe Weather on mobile